Little Silver, New Jersey
Current Conditions -  °F | °C
As of 2:15 AM on Thursday 18 Dec 2014 (Local Time) from KBLM Reporting Station
Overcast Overcast  
Wind Chill: 29°   Ceiling: 5500
Heat Index: 37°   Visibility: 10mi
Dew Point: 21°   Wind: 14mph
Humidity: 52%   Direction: 280°W
Pressure: 29.92"   Gusts: 22mph
Location:  40.34°N, 74.04°W
Report Text: KBLM 180715Z AUTO 28012G19KT 10SM OVC055 03/M06 A2992 RMK AO1
Loading
Personal Weather Stations






























Interactive Weather Map New forecast layout! Learn more

10-Day Weather Forecast

Advertisements
Track Severe Weather on mobile